Brownsville, TX (78520)

4:30 PM CST on February 12, 2016 (GMT -0600)
RGV | | Change Station
CLOSE
Current Station
Personal Weather Station
Location: Brownsville, TX
Elevation: 26 ft
Nearby Weather Stations

Elev 26 ft 25.99 °N, 97.47 °W | Updated 5 minutes ago

Clear
Clear
76.3 °F
Feels Like 78 °F
N
1.0
Wind Variable Wind from SSE
Gusts 4.0 mph

Today
High -- | Low -- °F
--% Chance of Precip.
Yesterday
High -- | Low -- °F
Precip. -- in
Pressure 30.16 in
Visibility 10.0 miles
Clouds Clear
Heat Index 78 °F
Dew Point 61 °F
Humidity 59%
Rainfall 0.00 in
Snow Depth Not available.
7:07 AM 6:21 PM
Waxing Crescent, 24% visible
METAR KBRO 122153Z 14015KT 10SM CLR 25/14 A3016 RMK AO2 SLP213 T02500144
Pressure 30.16 in
Visibility 10.0 miles
Clouds Clear
Heat Index 78 °F
Dew Point 61 °F
Humidity 59%
Rainfall 0.00 in
Snow Depth Not available.
7:07 AM 6:21 PM
Waxing Crescent, 24% visible
METAR KBRO 122153Z 14015KT 10SM CLR 25/14 A3016 RMK AO2 SLP213 T02500144

10-Day Weather Forecast

Almanac

Astronomy

Feb. 12, 2016 Rise Set
Actual Time
Civil Twilight
Nautical Twilight
Astronomical Twilight
Moon
Length of Visible Light
Length of Day
Tomorrow will be .
, % of the Moon is Illuminated

Today's Extremes

State Highs State Lows

Community

WunderPhotos

Upload Photos

1,892,421 photos uploaded!

WunderBlog® & News

Nearby

Air Quality

  Air Quality AQ Index Pollutant
Not available.

Snow Depth

Station Depth Elevation

Earthquake Activity

City Distance Mag. Time & Date
Minimum magnitude displayed is 2.5.

Coastal Water Temperatures

Place Temperature

Stations

Nearby Weather Stations

Station Location Temp. Windchill Dew Point Humidity Wind Precip. Elev Updated Type
                   

Watches & Warnings

There are currently no watches in effect.